sensor_id;sensor_type;location;lat;lon;timestamp;pressure;altitude;pressure_sealevel;temperature;humidity
67840;BME280;54636;51.684;5.142;2022-07-29T00:02:25;101730.31;;;16.69;64.01
67840;BME280;54636;51.684;5.142;2022-07-29T00:04:53;101725.81;;;16.72;64.23
67840;BME280;54636;51.684;5.142;2022-07-29T00:07:19;101682.44;;;16.37;64.09
67840;BME280;54636;51.684;5.142;2022-07-29T00:09:47;101727.31;;;16.73;64.19
67840;BME280;54636;51.684;5.142;2022-07-29T00:12:12;101687.41;;;16.50;64.40
67840;BME280;54636;51.684;5.142;2022-07-29T00:14:38;101716.09;;;16.71;64.49
67840;BME280;54636;51.684;5.142;2022-07-29T00:17:03;101714.34;;;16.68;64.55
67840;BME280;54636;51.684;5.142;2022-07-29T00:19:29;101713.06;;;16.63;64.44
67840;BME280;54636;51.684;5.142;2022-07-29T00:21:54;101712.84;;;16.67;64.45
67840;BME280;54636;51.684;5.142;2022-07-29T00:24:20;101708.09;;;16.62;64.73
67840;BME280;54636;51.684;5.142;2022-07-29T00:26:45;101714.84;;;16.66;64.59
67840;BME280;54636;51.684;5.142;2022-07-29T00:29:10;101706.84;;;16.63;64.89
67840;BME280;54636;51.684;5.142;2022-07-29T00:31:36;101711.59;;;16.68;64.81
67840;BME280;54636;51.684;5.142;2022-07-29T00:34:02;101710.84;;;16.67;64.86
67840;BME280;54636;51.684;5.142;2022-07-29T00:36:28;101702.13;;;16.69;64.53
67840;BME280;54636;51.684;5.142;2022-07-29T00:38:53;101683.41;;;16.62;64.68
67840;BME280;54636;51.684;5.142;2022-07-29T00:41:19;101695.88;;;16.68;64.55
67840;BME280;54636;51.684;5.142;2022-07-29T00:43:45;101689.41;;;16.66;64.78
67840;BME280;54636;51.684;5.142;2022-07-29T00:46:11;101694.91;;;16.66;64.61
67840;BME280;54636;51.684;5.142;2022-07-29T00:48:37;101697.38;;;16.75;65.01
67840;BME280;54636;51.684;5.142;2022-07-29T00:51:04;101687.66;;;16.68;64.53
67840;BME280;54636;51.684;5.142;2022-07-29T00:53:30;101694.63;;;16.75;64.57
67840;BME280;54636;51.684;5.142;2022-07-29T00:55:57;101696.38;;;16.72;64.93
67840;BME280;54636;51.684;5.142;2022-07-29T00:58:24;101692.41;;;16.68;64.99
67840;BME280;54636;51.684;5.142;2022-07-29T01:00:50;101691.13;;;16.63;64.85
67840;BME280;54636;51.684;5.142;2022-07-29T01:03:15;101690.66;;;16.70;65.25
67840;BME280;54636;51.684;5.142;2022-07-29T01:05:42;101679.41;;;16.63;64.88
67840;BME280;54636;51.684;5.142;2022-07-29T01:08:11;101691.66;;;16.67;65.17
67840;BME280;54636;51.684;5.142;2022-07-29T01:10:38;101699.63;;;16.71;65.02
67840;BME280;54636;51.684;5.142;2022-07-29T01:13:04;101693.66;;;16.67;65.08
67840;BME280;54636;51.684;5.142;2022-07-29T01:15:30;101697.88;;;16.68;65.34
67840;BME280;54636;51.684;5.142;2022-07-29T01:18:04;101669.19;;;16.52;65.46
67840;BME280;54636;51.684;5.142;2022-07-29T01:26:52;101685.66;;;16.63;65.26
67840;BME280;54636;51.684;5.142;2022-07-29T01:29:39;101687.66;;;16.57;65.64
67840;BME280;54636;51.684;5.142;2022-07-29T01:32:13;101682.16;;;16.57;66.21
67840;BME280;54636;51.684;5.142;2022-07-29T01:37:48;101685.16;;;16.54;66.23
67840;BME280;54636;51.684;5.142;2022-07-29T01:40:22;101680.66;;;16.51;66.19
67840;BME280;54636;51.684;5.142;2022-07-29T01:42:51;101671.69;;;16.44;66.67
67840;BME280;54636;51.684;5.142;2022-07-29T01:45:42;101671.69;;;16.50;66.64
67840;BME280;54636;51.684;5.142;2022-07-29T01:48:15;101665.22;;;16.47;66.95
67840;BME280;54636;51.684;5.142;2022-07-29T01:50:48;101621.41;;;16.20;66.91
67840;BME280;54636;51.684;5.142;2022-07-29T01:53:23;101651.03;;;16.38;67.01
67840;BME280;54636;51.684;5.142;2022-07-29T01:55:51;101652.50;;;16.44;67.26
67840;BME280;54636;51.684;5.142;2022-07-29T01:58:18;101656.00;;;16.45;67.33
67840;BME280;54636;51.684;5.142;2022-07-29T02:00:46;101650.28;;;16.43;67.19
67840;BME280;54636;51.684;5.142;2022-07-29T02:03:14;101656.00;;;16.45;67.11
67840;BME280;54636;51.684;5.142;2022-07-29T02:05:44;101639.31;;;16.32;67.26
67840;BME280;54636;51.684;5.142;2022-07-29T02:08:13;101645.28;;;16.30;67.53
67840;BME280;54636;51.684;5.142;2022-07-29T02:10:39;101665.72;;;16.35;67.67
67840;BME280;54636;51.684;5.142;2022-07-29T02:13:09;101650.78;;;16.30;68.03
67840;BME280;54636;51.684;5.142;2022-07-29T02:15:37;101661.50;;;16.28;68.00
67840;BME280;54636;51.684;5.142;2022-07-29T02:18:22;101652.06;;;16.24;68.38
67840;BME280;54636;51.684;5.142;2022-07-29T02:20:52;101656.03;;;16.23;68.55
67840;BME280;54636;51.684;5.142;2022-07-29T02:23:22;101641.59;;;16.11;68.60
67840;BME280;54636;51.684;5.142;2022-07-29T02:25:49;101644.84;;;16.15;69.17
67840;BME280;54636;51.684;5.142;2022-07-29T02:28:17;101642.09;;;16.09;69.23
67840;BME280;54636;51.684;5.142;2022-07-29T02:30:43;101649.81;;;16.05;69.17
67840;BME280;54636;51.684;5.142;2022-07-29T02:33:12;101643.59;;;16.05;69.28
67840;BME280;54636;51.684;5.142;2022-07-29T02:35:40;101646.31;;;15.99;69.88
67840;BME280;54636;51.684;5.142;2022-07-29T02:38:06;101649.06;;;15.99;69.67
67840;BME280;54636;51.684;5.142;2022-07-29T02:40:52;101650.81;;;15.97;70.28
67840;BME280;54636;51.684;5.142;2022-07-29T02:43:19;101642.34;;;15.95;70.44
67840;BME280;54636;51.684;5.142;2022-07-29T02:45:56;101639.09;;;15.96;69.53
67840;BME280;54636;51.684;5.142;2022-07-29T02:48:33;101645.31;;;15.91;70.02
67840;BME280;54636;51.684;5.142;2022-07-29T02:51:17;101639.34;;;15.87;69.78
67840;BME280;54636;51.684;5.142;2022-07-29T02:53:49;101627.88;;;15.77;70.37
67840;BME280;54636;51.684;5.142;2022-07-29T02:56:17;101628.88;;;15.74;70.93
67840;BME280;54636;51.684;5.142;2022-07-29T02:58:49;101643.06;;;15.78;70.83
67840;BME280;54636;51.684;5.142;2022-07-29T03:01:23;101644.81;;;15.76;70.88
67840;BME280;54636;51.684;5.142;2022-07-29T03:03:51;101630.09;;;15.73;70.97
67840;BME280;54636;51.684;5.142;2022-07-29T03:06:19;101595.47;;;15.48;71.28
67840;BME280;54636;51.684;5.142;2022-07-29T03:08:46;101609.66;;;15.52;71.53
67840;BME280;54636;51.684;5.142;2022-07-29T03:11:12;101637.31;;;15.65;71.40
67840;BME280;54636;51.684;5.142;2022-07-29T03:13:39;101618.38;;;15.51;71.60
67840;BME280;54636;51.684;5.142;2022-07-29T03:16:05;101633.09;;;15.59;71.77
67840;BME280;54636;51.684;5.142;2022-07-29T03:18:34;101634.31;;;15.52;71.85
67840;BME280;54636;51.684;5.142;2022-07-29T03:21:00;101634.53;;;15.48;72.12
67840;BME280;54636;51.684;5.142;2022-07-29T03:23:26;101640.28;;;15.51;72.16
67840;BME280;54636;51.684;5.142;2022-07-29T03:25:53;101644.22;;;15.44;72.69
67840;BME280;54636;51.684;5.142;2022-07-29T03:28:19;101642.97;;;15.39;72.69
67840;BME280;54636;51.684;5.142;2022-07-29T03:30:45;101634.75;;;15.34;72.72
67840;BME280;54636;51.684;5.142;2022-07-29T03:33:11;101637.97;;;15.32;73.10
67840;BME280;54636;51.684;5.142;2022-07-29T03:35:36;101637.22;;;15.32;73.41
67840;BME280;54636;51.684;5.142;2022-07-29T03:38:02;101623.75;;;15.17;73.51
67840;BME280;54636;51.684;5.142;2022-07-29T03:40:32;101617.50;;;15.11;73.65
67840;BME280;54636;51.684;5.142;2022-07-29T03:43:00;101632.69;;;15.18;73.71
67840;BME280;54636;51.684;5.142;2022-07-29T03:45:29;101633.19;;;15.16;73.75
67840;BME280;54636;51.684;5.142;2022-07-29T03:48:02;101624.19;;;15.04;74.19
67840;BME280;54636;51.684;5.142;2022-07-29T03:50:30;101630.66;;;15.07;74.57
67840;BME280;54636;51.684;5.142;2022-07-29T03:52:57;101629.91;;;15.06;74.80
67840;BME280;54636;51.684;5.142;2022-07-29T03:55:23;101633.41;;;15.07;74.59
67840;BME280;54636;51.684;5.142;2022-07-29T03:57:49;101632.41;;;15.04;74.83
67840;BME280;54636;51.684;5.142;2022-07-29T04:00:15;101631.41;;;15.02;75.08
67840;BME280;54636;51.684;5.142;2022-07-29T04:02:41;101618.44;;;14.91;75.17
67840;BME280;54636;51.684;5.142;2022-07-29T04:05:12;101622.94;;;15.00;74.88
67840;BME280;54636;51.684;5.142;2022-07-29T04:07:38;101625.91;;;14.96;75.29
67840;BME280;54636;51.684;5.142;2022-07-29T04:10:04;101628.63;;;14.91;75.34
67840;BME280;54636;51.684;5.142;2022-07-29T04:12:29;101631.84;;;14.83;75.81
67840;BME280;54636;51.684;5.142;2022-07-29T04:14:55;101612.09;;;14.68;75.60
67840;BME280;54636;51.684;5.142;2022-07-29T04:17:20;101627.56;;;14.77;76.03
67840;BME280;54636;51.684;5.142;2022-07-29T04:19:45;101640.22;;;14.74;75.96
67840;BME280;54636;51.684;5.142;2022-07-29T04:22:11;101628.50;;;14.68;75.74
67840;BME280;54636;51.684;5.142;2022-07-29T04:24:36;101635.94;;;14.62;76.24
67840;BME280;54636;51.684;5.142;2022-07-29T04:27:01;101647.88;;;14.65;76.14
67840;BME280;54636;51.684;5.142;2022-07-29T04:29:27;101655.34;;;14.64;76.24
67840;BME280;54636;51.684;5.142;2022-07-29T04:31:52;101652.34;;;14.62;76.09
67840;BME280;54636;51.684;5.142;2022-07-29T04:34:17;101658.06;;;14.64;76.37
67840;BME280;54636;51.684;5.142;2022-07-29T04:36:43;101637.88;;;14.56;76.19
67840;BME280;54636;51.684;5.142;2022-07-29T04:39:08;101658.56;;;14.63;76.50
67840;BME280;54636;51.684;5.142;2022-07-29T04:41:35;101640.84;;;14.53;76.64
67840;BME280;54636;51.684;5.142;2022-07-29T04:44:00;101654.31;;;14.62;76.69
67840;BME280;54636;51.684;5.142;2022-07-29T04:46:30;101636.13;;;14.53;76.59
67840;BME280;54636;51.684;5.142;2022-07-29T04:48:55;101662.78;;;14.64;76.68
67840;BME280;54636;51.684;5.142;2022-07-29T04:51:20;101648.41;;;14.69;76.21
67840;BME280;54636;51.684;5.142;2022-07-29T04:53:46;101647.19;;;14.75;76.08
67840;BME280;54636;51.684;5.142;2022-07-29T04:56:11;101647.22;;;14.81;75.87
67840;BME280;54636;51.684;5.142;2022-07-29T04:58:37;101634.03;;;14.74;75.53
67840;BME280;54636;51.684;5.142;2022-07-29T05:01:02;101627.31;;;14.75;75.30
67840;BME280;54636;51.684;5.142;2022-07-29T05:03:28;101645.56;;;14.95;75.13
67840;BME280;54636;51.684;5.142;2022-07-29T05:05:53;101598.69;;;14.70;74.90
67840;BME280;54636;51.684;5.142;2022-07-29T05:08:19;101650.34;;;15.11;74.73
67840;BME280;54636;51.684;5.142;2022-07-29T05:10:44;101649.88;;;15.18;74.33
67840;BME280;54636;51.684;5.142;2022-07-29T05:13:10;101641.66;;;15.18;73.98
67840;BME280;54636;51.684;5.142;2022-07-29T05:15:36;101651.91;;;15.29;73.79
67840;BME280;54636;51.684;5.142;2022-07-29T05:18:02;101651.69;;;15.38;72.86
67840;BME280;54636;51.684;5.142;2022-07-29T05:20:28;101652.72;;;15.52;72.77
67840;BME280;54636;51.684;5.142;2022-07-29T05:23:03;101654.22;;;15.53;72.53
67840;BME280;54636;51.684;5.142;2022-07-29T05:25:29;101656.25;;;15.58;72.59
67840;BME280;54636;51.684;5.142;2022-07-29T05:27:55;101657.00;;;15.58;72.56
67840;BME280;54636;51.684;5.142;2022-07-29T05:30:23;101653.25;;;15.61;72.81
67840;BME280;54636;51.684;5.142;2022-07-29T05:32:48;101664.72;;;15.71;72.36
67840;BME280;54636;51.684;5.142;2022-07-29T05:35:15;101663.22;;;15.75;71.66
67840;BME280;54636;51.684;5.142;2022-07-29T05:37:41;101649.75;;;15.66;71.58
67840;BME280;54636;51.684;5.142;2022-07-29T05:40:07;101656.75;;;15.84;71.29
67840;BME280;54636;51.684;5.142;2022-07-29T05:42:32;101663.25;;;15.81;71.60
67840;BME280;54636;51.684;5.142;2022-07-29T05:44:59;101666.72;;;15.87;71.34
67840;BME280;54636;51.684;5.142;2022-07-29T05:47:25;101673.22;;;15.95;70.90
67840;BME280;54636;51.684;5.142;2022-07-29T05:49:50;101681.94;;;16.05;70.89
67840;BME280;54636;51.684;5.142;2022-07-29T05:52:16;101678.72;;;16.12;70.81
67840;BME280;54636;51.684;5.142;2022-07-29T05:54:42;101689.94;;;16.20;69.90
67840;BME280;54636;51.684;5.142;2022-07-29T05:57:07;101694.16;;;16.15;70.29
67840;BME280;54636;51.684;5.142;2022-07-29T05:59:53;101699.66;;;16.21;69.97
67840;BME280;54636;51.684;5.142;2022-07-29T06:02:19;101709.34;;;16.27;69.92
67840;BME280;54636;51.684;5.142;2022-07-29T06:04:44;101707.34;;;16.28;70.29
67840;BME280;54636;51.684;5.142;2022-07-29T06:07:10;101708.84;;;16.34;69.99
67840;BME280;54636;51.684;5.142;2022-07-29T06:09:36;101699.88;;;16.45;69.47
67840;BME280;54636;51.684;5.142;2022-07-29T06:12:02;101706.09;;;16.51;68.49
67840;BME280;54636;51.684;5.142;2022-07-29T06:14:28;101708.84;;;16.51;68.29
67840;BME280;54636;51.684;5.142;2022-07-29T06:16:54;101706.34;;;16.59;68.27
67840;BME280;54636;51.684;5.142;2022-07-29T06:19:19;101702.34;;;16.60;68.21
67840;BME280;54636;51.684;5.142;2022-07-29T06:21:46;101709.09;;;16.70;68.01
67840;BME280;54636;51.684;5.142;2022-07-29T06:24:12;101704.09;;;16.85;68.23
67840;BME280;54636;51.684;5.142;2022-07-29T06:26:39;101707.81;;;16.88;67.38
67840;BME280;54636;51.684;5.142;2022-07-29T06:29:05;101701.84;;;16.89;67.36
67840;BME280;54636;51.684;5.142;2022-07-29T06:31:31;101706.34;;;16.87;67.47
67840;BME280;54636;51.684;5.142;2022-07-29T06:33:56;101693.13;;;16.79;67.44
67840;BME280;54636;51.684;5.142;2022-07-29T06:36:21;101694.59;;;16.86;67.82
67840;BME280;54636;51.684;5.142;2022-07-29T06:38:47;101691.88;;;16.86;67.76
67840;BME280;54636;51.684;5.142;2022-07-29T06:41:12;101699.34;;;16.86;67.26
67840;BME280;54636;51.684;5.142;2022-07-29T06:43:42;101695.63;;;16.83;68.24
67840;BME280;54636;51.684;5.142;2022-07-29T06:46:13;101700.28;;;17.05;66.92
67840;BME280;54636;51.684;5.142;2022-07-29T06:48:39;101695.50;;;17.17;66.82
67840;BME280;54636;51.684;5.142;2022-07-29T06:51:06;101702.69;;;17.25;66.76
67840;BME280;54636;51.684;5.142;2022-07-29T06:53:32;101702.47;;;17.23;66.39
67840;BME280;54636;51.684;5.142;2022-07-29T06:55:59;101700.03;;;17.03;66.88
67840;BME280;54636;51.684;5.142;2022-07-29T06:58:26;101698.25;;;17.11;67.22
67840;BME280;54636;51.684;5.142;2022-07-29T07:00:52;101713.34;;;17.45;66.92
67840;BME280;54636;51.684;5.142;2022-07-29T07:03:17;101698.00;;;17.61;65.72
67840;BME280;54636;51.684;5.142;2022-07-29T07:05:44;101707.91;;;17.81;65.48
67840;BME280;54636;51.684;5.142;2022-07-29T07:08:10;101709.97;;;18.10;63.88
67840;BME280;54636;51.684;5.142;2022-07-29T07:10:36;101706.59;;;18.23;63.65
67840;BME280;54636;51.684;5.142;2022-07-29T07:13:02;101720.97;;;19.38;60.63
67840;BME280;54636;51.684;5.142;2022-07-29T07:15:28;101725.13;;;20.01;57.97
67840;BME280;54636;51.684;5.142;2022-07-29T07:17:53;101733.31;;;20.38;56.45
67840;BME280;54636;51.684;5.142;2022-07-29T07:20:19;101730.75;;;20.41;56.08
67840;BME280;54636;51.684;5.142;2022-07-29T07:22:44;101719.34;;;20.63;55.39
67840;BME280;54636;51.684;5.142;2022-07-29T07:25:10;101728.78;;;20.94;54.63
67840;BME280;54636;51.684;5.142;2022-07-29T07:27:36;101714.66;;;21.11;53.72
67840;BME280;54636;51.684;5.142;2022-07-29T07:30:03;101722.75;;;21.35;53.98
67840;BME280;54636;51.684;5.142;2022-07-29T07:32:31;101721.03;;;21.66;52.53
67840;BME280;54636;51.684;5.142;2022-07-29T07:34:56;101726.69;;;21.60;52.44
67840;BME280;54636;51.684;5.142;2022-07-29T07:37:22;101720.81;;;21.03;53.50
67840;BME280;54636;51.684;5.142;2022-07-29T07:39:50;101718.16;;;20.98;55.05
67840;BME280;54636;51.684;5.142;2022-07-29T07:42:15;101725.59;;;21.16;53.87
67840;BME280;54636;51.684;5.142;2022-07-29T07:44:41;101720.06;;;21.16;54.26
67840;BME280;54636;51.684;5.142;2022-07-29T07:47:06;101721.91;;;21.27;53.93
67840;BME280;54636;51.684;5.142;2022-07-29T07:49:32;101729.44;;;21.26;53.74
67840;BME280;54636;51.684;5.142;2022-07-29T07:51:57;101726.56;;;21.32;54.18
67840;BME280;54636;51.684;5.142;2022-07-29T07:54:22;101720.50;;;21.33;53.89
67840;BME280;54636;51.684;5.142;2022-07-29T07:56:48;101726.06;;;21.54;55.16
67840;BME280;54636;51.684;5.142;2022-07-29T07:59:17;101717.16;;;21.48;53.03
67840;BME280;54636;51.684;5.142;2022-07-29T08:01:42;101728.09;;;21.54;52.68
67840;BME280;54636;51.684;5.142;2022-07-29T08:04:08;101724.34;;;21.64;53.53
67840;BME280;54636;51.684;5.142;2022-07-29T08:06:34;101719.84;;;21.75;52.39
67840;BME280;54636;51.684;5.142;2022-07-29T08:09:01;101718.44;;;21.81;53.39
67840;BME280;54636;51.684;5.142;2022-07-29T08:11:27;101714.88;;;21.94;52.16
67840;BME280;54636;51.684;5.142;2022-07-29T08:13:53;101715.22;;;21.90;51.76
67840;BME280;54636;51.684;5.142;2022-07-29T08:16:19;101701.34;;;21.69;53.03
67840;BME280;54636;51.684;5.142;2022-07-29T08:18:45;101692.44;;;21.43;53.72
67840;BME280;54636;51.684;5.142;2022-07-29T08:21:11;101697.03;;;21.27;55.14
67840;BME280;54636;51.684;5.142;2022-07-29T08:23:36;101703.91;;;21.20;54.09
67840;BME280;54636;51.684;5.142;2022-07-29T08:26:11;101717.00;;;21.07;55.11
67840;BME280;54636;51.684;5.142;2022-07-29T08:28:42;101687.19;;;20.65;55.39
67840;BME280;54636;51.684;5.142;2022-07-29T08:31:12;101719.47;;;20.70;56.15
67840;BME280;54636;51.684;5.142;2022-07-29T08:33:38;101715.59;;;20.47;56.42
67840;BME280;54636;51.684;5.142;2022-07-29T08:36:04;101725.31;;;20.35;58.06
67840;BME280;54636;51.684;5.142;2022-07-29T08:38:29;101724.31;;;20.19;57.81
67840;BME280;54636;51.684;5.142;2022-07-29T08:40:55;101727.59;;;20.18;57.97
67840;BME280;54636;51.684;5.142;2022-07-29T08:43:20;101722.03;;;20.36;57.70
67840;BME280;54636;51.684;5.142;2022-07-29T08:45:48;101720.50;;;20.67;57.73
67840;BME280;54636;51.684;5.142;2022-07-29T08:48:17;101719.69;;;20.73;57.31
67840;BME280;54636;51.684;5.142;2022-07-29T08:50:44;101728.78;;;20.94;57.82
67840;BME280;54636;51.684;5.142;2022-07-29T08:53:12;101721.88;;;21.00;55.03
67840;BME280;54636;51.684;5.142;2022-07-29T08:55:46;101733.34;;;21.18;56.21
67840;BME280;54636;51.684;5.142;2022-07-29T08:58:13;101730.94;;;21.27;54.68
67840;BME280;54636;51.684;5.142;2022-07-29T09:00:42;101729.00;;;21.35;54.46
67840;BME280;54636;51.684;5.142;2022-07-29T09:03:08;101732.31;;;21.34;53.83
67840;BME280;54636;51.684;5.142;2022-07-29T09:05:34;101730.22;;;21.48;55.11
67840;BME280;54636;51.684;5.142;2022-07-29T09:08:01;101726.44;;;21.72;54.32
67840;BME280;54636;51.684;5.142;2022-07-29T09:10:27;101721.00;;;21.79;50.88
67840;BME280;54636;51.684;5.142;2022-07-29T09:12:54;101724.22;;;21.70;51.86
67840;BME280;54636;51.684;5.142;2022-07-29T09:15:20;101735.94;;;21.63;51.43
67840;BME280;54636;51.684;5.142;2022-07-29T09:17:49;101745.72;;;21.64;52.44
67840;BME280;54636;51.684;5.142;2022-07-29T09:20:19;101741.34;;;21.68;52.80
67840;BME280;54636;51.684;5.142;2022-07-29T09:22:46;101739.09;;;21.80;50.64
67840;BME280;54636;51.684;5.142;2022-07-29T09:25:31;101727.56;;;21.89;51.53
67840;BME280;54636;51.684;5.142;2022-07-29T09:28:12;101733.72;;;21.95;51.49
67840;BME280;54636;51.684;5.142;2022-07-29T09:30:55;101739.38;;;22.11;51.44
67840;BME280;54636;51.684;5.142;2022-07-29T09:33:22;101739.75;;;22.07;49.93
67840;BME280;54636;51.684;5.142;2022-07-29T09:36:05;101738.31;;;22.34;50.61
67840;BME280;54636;51.684;5.142;2022-07-29T09:38:32;101724.69;;;22.37;49.72
67840;BME280;54636;51.684;5.142;2022-07-29T09:40:59;101726.03;;;22.43;49.76
67840;BME280;54636;51.684;5.142;2022-07-29T09:43:25;101742.41;;;22.62;50.21
67840;BME280;54636;51.684;5.142;2022-07-29T09:45:50;101735.88;;;22.80;49.67
67840;BME280;54636;51.684;5.142;2022-07-29T09:48:22;101737.69;;;23.06;50.13
67840;BME280;54636;51.684;5.142;2022-07-29T09:50:48;101734.47;;;23.23;49.64
67840;BME280;54636;51.684;5.142;2022-07-29T09:55:59;101736.56;;;23.38;49.19
67840;BME280;54636;51.684;5.142;2022-07-29T09:58:24;101730.31;;;23.52;48.85
67840;BME280;54636;51.684;5.142;2022-07-29T10:00:52;101726.13;;;23.67;47.08
67840;BME280;54636;51.684;5.142;2022-07-29T10:03:18;101735.06;;;23.95;48.28
67840;BME280;54636;51.684;5.142;2022-07-29T10:05:44;101732.66;;;24.07;47.57
67840;BME280;54636;51.684;5.142;2022-07-29T10:08:11;101734.88;;;24.16;45.94
67840;BME280;54636;51.684;5.142;2022-07-29T10:10:42;101732.28;;;24.18;47.14
67840;BME280;54636;51.684;5.142;2022-07-29T10:13:12;101731.34;;;24.08;46.53
67840;BME280;54636;51.684;5.142;2022-07-29T10:15:41;101713.59;;;23.88;46.83
67840;BME280;54636;51.684;5.142;2022-07-29T10:18:10;101731.34;;;23.85;46.67
67840;BME280;54636;51.684;5.142;2022-07-29T10:20:36;101719.53;;;23.92;46.83
67840;BME280;54636;51.684;5.142;2022-07-29T10:23:02;101716.75;;;24.08;44.98
67840;BME280;54636;51.684;5.142;2022-07-29T10:25:28;101732.28;;;24.11;45.50
67840;BME280;54636;51.684;5.142;2022-07-29T10:27:54;101734.91;;;24.01;45.26
67840;BME280;54636;51.684;5.142;2022-07-29T10:30:21;101717.84;;;23.82;45.62
67840;BME280;54636;51.684;5.142;2022-07-29T10:38:37;101719.19;;;24.42;46.69
67840;BME280;54636;51.684;5.142;2022-07-29T10:44:07;101717.13;;;24.57;45.28
67840;BME280;54636;51.684;5.142;2022-07-29T10:46:38;101723.97;;;24.56;43.98
67840;BME280;54636;51.684;5.142;2022-07-29T10:49:08;101725.28;;;24.55;43.51
67840;BME280;54636;51.684;5.142;2022-07-29T10:51:53;101723.03;;;24.69;43.80
67840;BME280;54636;51.684;5.142;2022-07-29T10:54:38;101726.56;;;24.54;43.05
67840;BME280;54636;51.684;5.142;2022-07-29T10:59:37;101707.34;;;24.34;43.00
67840;BME280;54636;51.684;5.142;2022-07-29T11:07:21;101704.56;;;24.34;42.80
67840;BME280;54636;51.684;5.142;2022-07-29T11:15:11;101714.75;;;24.39;42.87
67840;BME280;54636;51.684;5.142;2022-07-29T11:20:51;101714.47;;;24.75;44.03
67840;BME280;54636;51.684;5.142;2022-07-29T11:23:26;101713.16;;;24.83;42.46
67840;BME280;54636;51.684;5.142;2022-07-29T11:28:59;101719.06;;;25.03;41.69
67840;BME280;54636;51.684;5.142;2022-07-29T11:31:43;101711.28;;;24.93;41.39
67840;BME280;54636;51.684;5.142;2022-07-29T11:34:32;101713.53;;;24.87;41.49
67840;BME280;54636;51.684;5.142;2022-07-29T11:45:12;101709.53;;;25.28;42.37
67840;BME280;54636;51.684;5.142;2022-07-29T11:50:13;101708.28;;;25.47;40.76
67840;BME280;54636;51.684;5.142;2022-07-29T11:52:44;101711.34;;;25.34;40.63
67840;BME280;54636;51.684;5.142;2022-07-29T11:55:17;101697.94;;;25.40;40.76
67840;BME280;54636;51.684;5.142;2022-07-29T11:57:55;101709.91;;;25.57;41.43
67840;BME280;54636;51.684;5.142;2022-07-29T12:00:45;101691.22;;;25.50;41.03
67840;BME280;54636;51.684;5.142;2022-07-29T12:03:12;101709.34;;;25.67;39.63
67840;BME280;54636;51.684;5.142;2022-07-29T12:05:48;101703.50;;;25.40;37.58
67840;BME280;54636;51.684;5.142;2022-07-29T12:08:18;101713.69;;;25.45;38.45
67840;BME280;54636;51.684;5.142;2022-07-29T12:10:46;101708.50;;;25.41;38.05
67840;BME280;54636;51.684;5.142;2022-07-29T12:13:13;101706.25;;;25.47;39.89
67840;BME280;54636;51.684;5.142;2022-07-29T12:15:40;101713.44;;;25.58;38.04
67840;BME280;54636;51.684;5.142;2022-07-29T12:18:18;101704.84;;;25.71;39.93
67840;BME280;54636;51.684;5.142;2022-07-29T12:20:46;101718.44;;;25.92;39.31
67840;BME280;54636;51.684;5.142;2022-07-29T12:23:12;101721.50;;;26.04;38.70
67840;BME280;54636;51.684;5.142;2022-07-29T12:25:38;101722.56;;;26.08;37.73
67840;BME280;54636;51.684;5.142;2022-07-29T12:28:07;101710.75;;;26.00;38.25
67840;BME280;54636;51.684;5.142;2022-07-29T12:30:47;101718.53;;;26.02;38.67
67840;BME280;54636;51.684;5.142;2022-07-29T12:33:15;101711.03;;;26.12;38.79
67840;BME280;54636;51.684;5.142;2022-07-29T12:35:43;101697.78;;;26.20;38.72
67840;BME280;54636;51.684;5.142;2022-07-29T12:38:10;101705.47;;;26.12;37.82
67840;BME280;54636;51.684;5.142;2022-07-29T12:40:37;101704.16;;;26.13;38.22
67840;BME280;54636;51.684;5.142;2022-07-29T12:43:07;101705.88;;;26.08;36.81
67840;BME280;54636;51.684;5.142;2022-07-29T12:45:32;101710.13;;;26.09;36.72
67840;BME280;54636;51.684;5.142;2022-07-29T12:47:58;101706.53;;;26.16;37.00
67840;BME280;54636;51.684;5.142;2022-07-29T12:50:23;101690.00;;;26.18;37.01
67840;BME280;54636;51.684;5.142;2022-07-29T12:52:50;101697.69;;;26.35;38.10
67840;BME280;54636;51.684;5.142;2022-07-29T12:55:15;101698.19;;;26.41;37.31
67840;BME280;54636;51.684;5.142;2022-07-29T12:57:49;101706.94;;;26.38;37.13
67840;BME280;54636;51.684;5.142;2022-07-29T13:00:23;101695.34;;;26.24;37.24
67840;BME280;54636;51.684;5.142;2022-07-29T13:02:57;101701.06;;;26.26;37.53
67840;BME280;54636;51.684;5.142;2022-07-29T13:05:23;101701.41;;;26.30;36.86
67840;BME280;54636;51.684;5.142;2022-07-29T13:07:50;101698.59;;;26.38;37.83
67840;BME280;54636;51.684;5.142;2022-07-29T13:10:20;101694.81;;;26.43;37.09
67840;BME280;54636;51.684;5.142;2022-07-29T13:13:24;101707.50;;;26.36;37.69
67840;BME280;54636;51.684;5.142;2022-07-29T13:16:05;101695.34;;;26.24;37.33
67840;BME280;54636;51.684;5.142;2022-07-29T13:18:34;101706.94;;;26.13;37.28
67840;BME280;54636;51.684;5.142;2022-07-29T13:21:12;101702.28;;;26.15;38.56
67840;BME280;54636;51.684;5.142;2022-07-29T13:23:37;101696.38;;;26.36;38.51
67840;BME280;54636;51.684;5.142;2022-07-29T13:26:07;101705.72;;;26.48;37.44
67840;BME280;54636;51.684;5.142;2022-07-29T13:28:33;101690.50;;;26.49;37.56
67840;BME280;54636;51.684;5.142;2022-07-29T13:30:59;101682.38;;;26.44;36.80
67840;BME280;54636;51.684;5.142;2022-07-29T13:33:25;101672.53;;;26.43;37.84
67840;BME280;54636;51.684;5.142;2022-07-29T13:35:50;101698.09;;;26.66;37.44
67840;BME280;54636;51.684;5.142;2022-07-29T13:38:16;101698.19;;;26.58;37.01
67840;BME280;54636;51.684;5.142;2022-07-29T13:40:42;101687.13;;;26.51;38.51
67840;BME280;54636;51.684;5.142;2022-07-29T13:43:11;101694.50;;;26.73;37.50
67840;BME280;54636;51.684;5.142;2022-07-29T13:45:36;101706.53;;;26.93;37.52
67840;BME280;54636;51.684;5.142;2022-07-29T13:48:02;101699.84;;;26.96;37.23